Time;durP1;ratioP1;P1;durP2;ratioP2;P2;SDS_P1;SDS_P2;PMS_P1;PMS_P2;Temp;Humidity;BMP_temperature;BMP_pressure;BME280_temperature;BME280_humidity;BME280_pressure;Samples;Min_cycle;Max_cycle;Signal;HPM_P1;HPM_P2
2023/07/03 00:00:42;;;;;;;16.20;12.43;;;24.50;44.80;;;;;;4994042;28;20451;-67
2023/07/03 00:03:13;;;;;;;16.07;12.53;;;24.50;44.80;;;;;;4994455;28;20499;-67
2023/07/03 00:05:46;;;;;;;15.93;12.07;;;24.50;44.90;;;;;;4993806;28;20502;-67
2023/07/03 00:08:13;;;;;;;16.07;11.70;;;24.50;45.00;;;;;;4994092;28;20443;-67
2023/07/03 00:10:39;;;;;;;15.50;11.63;;;24.50;44.90;;;;;;4992749;28;20836;-67
2023/07/03 00:13:05;;;;;;;15.27;12.20;;;24.50;45.00;;;;;;4993747;28;20420;-67
2023/07/03 00:15:31;;;;;;;19.40;12.60;;;24.50;45.00;;;;;;4993649;28;20663;-68
2023/07/03 00:17:56;;;;;;;15.17;11.50;;;24.50;44.90;;;;;;4993670;28;20204;-67
2023/07/03 00:20:22;;;;;;;13.77;11.70;;;24.50;44.90;;;;;;4992558;28;20439;-67
2023/07/03 00:22:48;;;;;;;17.10;12.27;;;24.50;44.90;;;;;;4993947;28;20227;-68
2023/07/03 00:25:14;;;;;;;15.67;12.13;;;24.50;44.90;;;;;;4993700;28;20209;-67
2023/07/03 00:27:40;;;;;;;18.27;12.37;;;24.50;44.90;;;;;;4993569;28;20205;-67
2023/07/03 00:30:06;;;;;;;17.17;12.80;;;24.50;44.90;;;;;;4993616;28;20435;-67
2023/07/03 00:32:32;;;;;;;16.27;12.93;;;24.50;44.80;;;;;;4993866;28;20533;-67
2023/07/03 00:34:58;;;;;;;16.60;11.80;;;24.50;44.80;;;;;;4993742;28;20412;-67
2023/07/03 00:37:23;;;;;;;17.00;13.07;;;24.50;44.90;;;;;;4993452;28;20209;-67
2023/07/03 00:39:49;;;;;;;15.53;12.40;;;24.50;44.80;;;;;;4993380;28;20658;-66
2023/07/03 00:42:15;;;;;;;16.70;12.23;;;24.50;44.80;;;;;;4993328;28;20189;-68
2023/07/03 00:44:40;;;;;;;17.20;12.27;;;24.50;44.80;;;;;;4992753;28;20212;-67
2023/07/03 00:47:10;;;;;;;16.50;12.17;;;24.50;44.80;;;;;;4993495;28;20213;-67
2023/07/03 00:49:36;;;;;;;16.00;11.90;;;24.50;44.80;;;;;;4993513;28;20177;-67
2023/07/03 00:52:02;;;;;;;17.50;13.20;;;24.50;44.80;;;;;;4992891;28;20427;-67
2023/07/03 00:54:29;;;;;;;17.33;12.90;;;24.50;44.80;;;;;;4992734;28;20432;-67
2023/07/03 00:56:55;;;;;;;17.13;12.40;;;24.50;44.70;;;;;;4993103;28;20440;-67
2023/07/03 00:59:21;;;;;;;16.60;13.00;;;24.50;44.70;;;;;;4993109;28;20800;-67
2023/07/03 01:02:16;;;;;;;19.03;13.47;;;24.50;44.70;;;;;;4992921;28;20197;-66
2023/07/03 01:05:01;;;;;;;16.57;12.50;;;24.40;44.60;;;;;;4979300;28;20543;-67
2023/07/03 01:07:33;;;;;;;16.90;12.07;;;24.40;44.70;;;;;;4993208;28;20944;-67
2023/07/03 01:10:03;;;;;;;16.67;12.80;;;24.40;44.70;;;;;;4983041;28;20420;-66
2023/07/03 01:12:30;;;;;;;14.70;12.43;;;24.40;44.70;;;;;;4972599;28;20397;-67
2023/07/03 01:15:00;;;;;;;18.00;12.60;;;24.40;44.70;;;;;;4973659;28;20449;-67
2023/07/03 01:17:28;;;;;;;19.73;12.73;;;24.40;44.60;;;;;;4973669;28;20428;-67
2023/07/03 01:19:55;;;;;;;17.10;13.53;;;24.40;44.60;;;;;;4973547;28;20417;-68
2023/07/03 01:22:48;;;;;;;15.60;12.63;;;24.40;44.60;;;;;;4985172;28;20426;-66
2023/07/03 01:25:19;;;;;;;18.27;12.53;;;24.40;44.60;;;;;;4956154;28;20468;-68
2023/07/03 01:27:49;;;;;;;16.37;12.80;;;24.40;44.60;;;;;;4992872;28;21000;-67
2023/07/03 01:30:18;;;;;;;19.73;14.03;;;24.40;44.60;;;;;;4992874;28;20416;-67
2023/07/03 01:32:46;;;;;;;19.43;14.23;;;24.40;44.60;;;;;;4992557;28;20478;-67
2023/07/03 01:35:13;;;;;;;15.30;11.10;;;24.40;44.60;;;;;;4992339;28;20844;-67
2023/07/03 01:37:43;;;;;;;19.27;13.90;;;24.40;44.60;;;;;;4992457;28;20988;-67
2023/07/03 01:40:12;;;;;;;18.00;11.70;;;24.30;44.50;;;;;;4992562;28;20444;-67
2023/07/03 01:42:40;;;;;;;15.77;11.63;;;24.30;44.50;;;;;;4992410;28;20958;-67
2023/07/03 01:45:07;;;;;;;14.57;12.30;;;24.30;44.50;;;;;;4992117;28;20819;-67
2023/07/03 01:47:33;;;;;;;15.77;12.20;;;24.30;44.50;;;;;;4992111;28;20436;-67
2023/07/03 01:49:59;;;;;;;19.20;12.97;;;24.30;44.50;;;;;;4992450;28;20429;-67
2023/07/03 01:52:56;;;;;;;19.67;14.00;;;24.30;44.50;;;;;;4992598;28;20457;-66
2023/07/03 01:55:39;;;;;;;14.73;12.43;;;24.30;45.20;;;;;;4980074;28;20193;-67
2023/07/03 01:58:21;;;;;;;17.40;12.37;;;24.30;44.50;;;;;;4992280;28;20475;-67
2023/07/03 02:00:53;;;;;;;14.13;11.73;;;24.30;44.50;;;;;;4992220;28;20470;-66
2023/07/03 02:03:31;;;;;;;16.87;12.30;;;24.30;44.50;;;;;;4992261;28;20420;-67
2023/07/03 02:06:01;;;;;;;16.33;12.40;;;24.30;44.50;;;;;;4996058;28;20461;-66
2023/07/03 02:08:29;;;;;;;17.70;11.57;;;24.30;44.50;;;;;;4996328;28;20412;-67
2023/07/03 02:10:55;;;;;;;16.50;12.03;;;24.30;44.50;;;;;;4996300;28;20420;-67
2023/07/03 02:13:22;;;;;;;16.47;12.77;;;24.30;44.50;;;;;;4996374;28;20431;-67
2023/07/03 02:15:48;;;;;;;17.57;12.80;;;24.30;44.50;;;;;;4995758;28;20430;-67
2023/07/03 02:18:17;;;;;;;17.20;11.30;;;24.30;44.50;;;;;;4995933;28;20476;-67
2023/07/03 02:20:44;;;;;;;16.07;11.80;;;24.30;44.50;;;;;;4995828;28;20503;-67
2023/07/03 02:23:10;;;;;;;17.73;12.30;;;24.30;44.40;;;;;;4996214;28;20998;-66
2023/07/03 02:25:36;;;;;;;16.80;12.93;;;24.30;44.40;;;;;;4995869;28;20483;-68
2023/07/03 02:28:03;;;;;;;14.63;11.53;;;24.30;44.40;;;;;;4995923;28;20446;-66
2023/07/03 02:30:29;;;;;;;18.23;13.07;;;24.20;44.30;;;;;;4995853;28;20239;-67
2023/07/03 02:32:54;;;;;;;16.83;11.70;;;24.20;44.40;;;;;;4995812;28;20898;-67
2023/07/03 02:35:20;;;;;;;15.57;11.50;;;24.20;44.40;;;;;;4995400;28;20188;-67
2023/07/03 02:37:46;;;;;;;15.50;11.70;;;24.20;44.30;;;;;;4995766;28;20367;-67
2023/07/03 02:40:13;;;;;;;15.77;12.30;;;24.20;44.30;;;;;;4995670;28;20188;-67
2023/07/03 02:42:39;;;;;;;16.80;11.40;;;24.20;44.30;;;;;;4995503;28;20652;-67
2023/07/03 02:45:06;;;;;;;16.50;12.43;;;24.20;44.30;;;;;;4995563;28;20821;-67
2023/07/03 02:47:34;;;;;;;13.80;11.30;;;24.20;44.40;;;;;;4995122;28;20440;-67
2023/07/03 02:50:00;;;;;;;19.83;12.90;;;24.20;44.40;;;;;;4995635;28;20420;-67
2023/07/03 02:52:25;;;;;;;16.47;11.60;;;24.20;44.40;;;;;;4995249;28;20428;-67
2023/07/03 02:54:51;;;;;;;15.00;12.00;;;24.20;44.30;;;;;;4995426;28;20181;-67
2023/07/03 02:57:16;;;;;;;17.53;11.80;;;24.20;44.30;;;;;;4995339;28;20244;-67
2023/07/03 02:59:42;;;;;;;17.40;11.40;;;24.20;44.40;;;;;;4995454;28;20192;-66
2023/07/03 03:02:08;;;;;;;14.00;11.10;;;24.20;44.30;;;;;;4995008;28;20693;-67
2023/07/03 03:04:33;;;;;;;14.80;11.20;;;24.20;44.40;;;;;;4977019;28;20182;-67
2023/07/03 03:06:59;;;;;;;15.73;11.57;;;24.20;44.40;;;;;;4981087;28;20286;-67
2023/07/03 03:09:25;;;;;;;17.20;12.00;;;24.20;44.40;;;;;;4995386;28;20169;-67
2023/07/03 03:11:50;;;;;;;16.07;12.13;;;24.20;44.40;;;;;;4995338;28;20173;-67
2023/07/03 03:14:16;;;;;;;15.27;11.40;;;24.20;44.50;;;;;;4995308;28;20173;-67
2023/07/03 03:16:41;;;;;;;13.47;10.60;;;24.20;44.50;;;;;;4994805;28;20200;-68
2023/07/03 03:19:07;;;;;;;13.67;11.00;;;24.20;44.50;;;;;;4990286;28;20186;-66
2023/07/03 03:21:33;;;;;;;15.80;11.77;;;24.20;44.60;;;;;;4975680;28;20173;-67
2023/07/03 03:23:58;;;;;;;17.93;13.10;;;24.20;44.70;;;;;;4975686;28;20177;-66
2023/07/03 03:26:24;;;;;;;15.90;11.70;;;24.20;44.70;;;;;;4975453;28;20197;-67
2023/07/03 03:28:50;;;;;;;18.40;12.80;;;24.20;44.70;;;;;;4975582;28;20170;-67
2023/07/03 03:31:16;;;;;;;14.83;12.60;;;24.20;44.80;;;;;;4975769;28;20417;-66
2023/07/03 03:33:41;;;;;;;17.43;12.43;;;24.20;44.80;;;;;;4975471;28;20190;-67
2023/07/03 03:36:07;;;;;;;15.07;12.03;;;24.20;44.80;;;;;;4975405;28;20170;-67
2023/07/03 03:38:32;;;;;;;14.40;11.70;;;24.20;44.80;;;;;;4975374;28;20208;-68
2023/07/03 03:41:00;;;;;;;16.13;11.90;;;24.20;44.80;;;;;;4975384;28;20205;-67
2023/07/03 03:43:26;;;;;;;17.47;12.47;;;24.20;44.80;;;;;;4989960;28;20211;-67
2023/07/03 03:46:01;;;;;;;15.07;11.57;;;24.20;44.70;;;;;;4994642;28;20452;-67
2023/07/03 03:48:29;;;;;;;15.00;12.10;;;24.20;44.70;;;;;;4994672;28;20569;-67
2023/07/03 03:50:55;;;;;;;16.63;13.17;;;24.20;44.60;;;;;;4993347;28;20428;-67
2023/07/03 03:53:21;;;;;;;17.50;11.83;;;24.20;44.60;;;;;;4984963;28;20421;-67
2023/07/03 03:55:51;;;;;;;15.47;12.37;;;24.20;44.50;;;;;;4975077;28;20425;-67
2023/07/03 03:58:18;;;;;;;17.37;12.90;;;24.20;44.50;;;;;;4990106;28;20494;-66
2023/07/03 04:00:44;;;;;;;15.90;11.80;;;24.20;44.50;;;;;;4994318;28;20431;-66
2023/07/03 04:03:10;;;;;;;15.00;10.80;;;24.10;44.40;;;;;;4994464;28;20433;-67
2023/07/03 04:05:36;;;;;;;16.70;11.87;;;24.20;44.50;;;;;;4994224;28;20993;-67
2023/07/03 04:08:03;;;;;;;14.37;11.10;;;24.10;44.40;;;;;;4994186;28;20522;-67
2023/07/03 04:10:28;;;;;;;17.03;12.83;;;24.10;44.40;;;;;;4994237;28;20466;-66
2023/07/03 04:12:54;;;;;;;15.83;12.27;;;24.10;44.40;;;;;;4994128;28;20400;-66
2023/07/03 04:15:22;;;;;;;15.87;11.83;;;24.10;44.40;;;;;;4994109;28;20204;-67
2023/07/03 04:17:47;;;;;;;17.93;12.60;;;24.20;44.40;;;;;;4994001;28;20694;-67
2023/07/03 04:20:13;;;;;;;18.70;12.40;;;24.10;44.40;;;;;;4993491;28;20440;-67
2023/07/03 04:22:40;;;;;;;18.13;13.00;;;24.10;44.40;;;;;;4993475;28;20595;-67
2023/07/03 04:25:07;;;;;;;16.53;11.40;;;24.10;44.40;;;;;;4993706;28;20555;-68
2023/07/03 04:27:33;;;;;;;15.43;11.03;;;24.10;44.50;;;;;;4992792;28;20471;-67
2023/07/03 04:29:59;;;;;;;15.30;10.67;;;24.10;44.60;;;;;;4993624;28;20450;-67
2023/07/03 04:32:25;;;;;;;14.00;10.50;;;24.10;44.60;;;;;;4994090;28;20762;-67
2023/07/03 04:34:50;;;;;;;15.23;11.90;;;24.20;44.70;;;;;;4993027;28;20181;-66
2023/07/03 04:37:17;;;;;;;14.87;12.00;;;24.10;44.70;;;;;;4993712;28;20208;-67
2023/07/03 04:39:43;;;;;;;17.47;11.60;;;24.10;44.70;;;;;;4992744;28;20219;-66
2023/07/03 04:42:13;;;;;;;18.73;11.53;;;24.20;44.90;;;;;;4993304;28;20476;-67
2023/07/03 04:44:41;;;;;;;13.60;10.87;;;24.20;44.80;;;;;;4992038;28;20296;-67
2023/07/03 04:47:07;;;;;;;12.47;10.73;;;24.20;44.90;;;;;;4993782;28;20435;-66
2023/07/03 04:49:33;;;;;;;14.90;10.67;;;24.20;45.50;;;;;;4993297;28;20432;-67
2023/07/03 04:51:59;;;;;;;15.67;11.53;;;24.20;44.90;;;;;;4993241;28;20579;-66
2023/07/03 04:54:27;;;;;;;13.23;10.70;;;24.20;44.90;;;;;;4993466;28;20184;-68
2023/07/03 04:56:53;;;;;;;16.50;12.07;;;24.20;44.90;;;;;;4993106;28;20447;-68
2023/07/03 04:59:19;;;;;;;12.90;10.63;;;24.20;44.90;;;;;;4992881;28;20794;-67
2023/07/03 05:01:45;;;;;;;16.33;12.87;;;24.20;44.90;;;;;;4993309;28;20440;-68
2023/07/03 05:04:11;;;;;;;15.63;11.50;;;24.20;45.00;;;;;;4993032;28;20189;-67
2023/07/03 05:06:37;;;;;;;16.83;12.30;;;24.20;45.00;;;;;;4991879;28;20743;-67
2023/07/03 05:09:04;;;;;;;14.37;12.80;;;24.20;45.00;;;;;;4974064;28;20768;-68
2023/07/03 05:11:31;;;;;;;13.23;10.70;;;24.30;45.00;;;;;;4973905;28;20419;-68
2023/07/03 05:13:56;;;;;;;12.47;11.03;;;24.30;45.60;;;;;;4990878;28;20428;-66
2023/07/03 05:16:22;;;;;;;13.83;10.60;;;24.30;45.00;;;;;;4992916;28;20506;-68
2023/07/03 05:18:48;;;;;;;13.20;11.53;;;24.30;45.00;;;;;;4992705;28;20191;-68
2023/07/03 05:21:14;;;;;;;17.20;12.90;;;24.30;45.00;;;;;;4992753;28;20912;-66
2023/07/03 05:23:40;;;;;;;15.40;11.63;;;24.30;45.00;;;;;;4992956;28;20416;-68
2023/07/03 05:26:06;;;;;;;14.67;11.50;;;24.30;45.00;;;;;;4992670;28;20867;-68
2023/07/03 05:28:32;;;;;;;13.20;10.70;;;24.30;45.00;;;;;;4992849;28;20173;-68
2023/07/03 05:30:59;;;;;;;13.70;10.73;;;24.30;45.00;;;;;;4992817;28;20428;-68
2023/07/03 05:33:26;;;;;;;15.27;11.03;;;24.30;45.00;;;;;;4992128;28;20820;-69
2023/07/03 05:35:52;;;;;;;12.80;10.23;;;24.30;45.00;;;;;;4992775;28;20412;-67
2023/07/03 05:38:18;;;;;;;11.83;10.30;;;24.30;45.00;;;;;;4992482;28;20959;-68
2023/07/03 05:40:44;;;;;;;14.77;9.93;;;24.30;45.00;;;;;;4992645;28;20591;-69
2023/07/03 05:43:10;;;;;;;16.73;10.43;;;24.30;45.10;;;;;;4992646;28;20415;-69
2023/07/03 05:45:36;;;;;;;14.27;10.83;;;24.30;45.00;;;;;;4992415;28;20189;-67
2023/07/03 05:48:02;;;;;;;11.63;9.63;;;24.30;45.10;;;;;;4992484;28;20424;-67
2023/07/03 05:50:27;;;;;;;12.43;10.30;;;24.30;45.10;;;;;;4992540;28;20165;-68
2023/07/03 05:52:53;;;;;;;14.20;10.17;;;24.30;45.10;;;;;;4992379;28;20459;-67
2023/07/03 05:55:19;;;;;;;13.33;11.00;;;24.30;45.10;;;;;;4991317;28;20221;-68
2023/07/03 05:57:45;;;;;;;13.80;10.43;;;24.30;45.10;;;;;;4992442;28;20736;-69
2023/07/03 06:00:13;;;;;;;15.60;11.20;;;24.30;45.20;;;;;;4992766;28;20172;-69
2023/07/03 06:02:43;;;;;;;16.70;10.73;;;24.30;45.70;;;;;;4991005;28;20436;-66
2023/07/03 06:05:11;;;;;;;14.83;10.83;;;24.30;45.20;;;;;;4992386;28;20798;-67
2023/07/03 06:07:37;;;;;;;15.60;11.10;;;24.30;45.20;;;;;;4992255;28;20435;-67
2023/07/03 06:10:03;;;;;;;14.47;11.57;;;24.30;45.20;;;;;;4992438;28;20412;-68
2023/07/03 06:12:29;;;;;;;14.43;11.20;;;24.30;45.20;;;;;;4992341;28;20416;-68
2023/07/03 06:15:02;;;;;;;15.57;11.33;;;24.30;45.30;;;;;;4992382;28;20416;-68
2023/07/03 06:17:28;;;;;;;14.23;9.83;;;24.40;45.40;;;;;;4992585;28;20435;-68
2023/07/03 06:19:55;;;;;;;14.93;10.97;;;24.30;45.30;;;;;;4992302;28;20462;-67
2023/07/03 06:22:20;;;;;;;14.40;11.47;;;24.30;45.30;;;;;;4992324;28;20439;-68
2023/07/03 06:24:46;;;;;;;15.87;10.37;;;24.30;45.30;;;;;;4990895;28;20416;-68
2023/07/03 06:27:12;;;;;;;13.00;10.30;;;24.30;45.40;;;;;;4992195;28;20191;-69
2023/07/03 06:29:38;;;;;;;16.43;11.90;;;24.40;45.50;;;;;;4992245;28;20176;-68
2023/07/03 06:32:05;;;;;;;15.53;11.23;;;24.40;45.50;;;;;;4992568;28;20502;-68
2023/07/03 06:34:31;;;;;;;14.17;9.87;;;24.40;45.50;;;;;;4992267;28;20774;-69
2023/07/03 06:36:56;;;;;;;15.80;9.90;;;24.40;45.50;;;;;;4992176;28;20432;-68
2023/07/03 06:39:22;;;;;;;14.00;10.37;;;24.40;45.50;;;;;;4992476;28;20173;-68
2023/07/03 06:41:48;;;;;;;14.73;10.47;;;24.40;45.60;;;;;;4992150;28;20220;-67
2023/07/03 06:44:15;;;;;;;14.53;10.17;;;24.40;45.60;;;;;;4992156;28;20181;-67
2023/07/03 06:46:41;;;;;;;13.30;10.60;;;24.40;45.50;;;;;;4991967;28;20279;-68
2023/07/03 06:49:07;;;;;;;16.53;10.40;;;24.40;45.60;;;;;;4992354;28;20424;-68
2023/07/03 06:51:32;;;;;;;12.47;10.13;;;24.40;45.60;;;;;;4994094;28;20645;-68
2023/07/03 06:53:58;;;;;;;16.63;11.23;;;24.40;45.60;;;;;;4995637;28;20220;-68
2023/07/03 06:56:24;;;;;;;12.77;9.90;;;24.40;45.60;;;;;;4995487;28;20193;-68
2023/07/03 06:58:50;;;;;;;15.27;10.63;;;24.40;45.60;;;;;;4995641;28;20252;-67
2023/07/03 07:01:19;;;;;;;13.87;9.90;;;24.40;45.60;;;;;;4995476;28;20932;-67
2023/07/03 07:03:44;;;;;;;11.93;9.70;;;24.40;45.60;;;;;;4995510;28;20424;-68
2023/07/03 07:06:19;;;;;;;10.03;8.43;;;24.40;45.60;;;;;;4995283;28;20467;-66
2023/07/03 07:08:45;;;;;;;16.03;10.70;;;24.40;45.60;;;;;;4995674;28;20591;-66
2023/07/03 07:11:23;;;;;;;17.90;10.50;;;24.40;45.60;;;;;;4995389;28;20408;-69
2023/07/03 07:13:50;;;;;;;13.57;8.57;;;24.40;45.60;;;;;;4995231;28;20499;-67
2023/07/03 07:16:23;;;;;;;12.63;9.70;;;24.40;45.60;;;;;;4995477;28;20427;-68
2023/07/03 07:18:51;;;;;;;15.70;9.57;;;24.40;45.60;;;;;;4995300;28;20401;-67
2023/07/03 07:21:17;;;;;;;14.67;9.40;;;24.40;45.60;;;;;;4995437;28;20758;-68
2023/07/03 07:23:45;;;;;;;12.03;9.60;;;24.40;45.60;;;;;;4995377;28;20419;-69
2023/07/03 07:26:11;;;;;;;13.67;8.57;;;24.40;45.70;;;;;;4994944;28;20452;-67
2023/07/03 07:28:37;;;;;;;12.37;8.70;;;24.40;45.70;;;;;;4995335;28;20427;-68
2023/07/03 07:31:02;;;;;;;13.27;8.90;;;24.40;46.30;;;;;;4995045;28;20215;-68
2023/07/03 07:33:28;;;;;;;12.93;8.80;;;24.40;45.70;;;;;;4994997;28;20166;-66
2023/07/03 07:35:53;;;;;;;13.07;8.53;;;24.40;45.70;;;;;;4994934;28;20228;-67
2023/07/03 07:38:21;;;;;;;12.23;7.57;;;24.40;45.70;;;;;;4994710;28;20681;-67
2023/07/03 07:40:48;;;;;;;16.93;9.37;;;24.40;45.70;;;;;;4994782;28;20180;-66
2023/07/03 07:43:14;;;;;;;12.83;9.17;;;24.40;45.70;;;;;;4995034;28;20498;-67
2023/07/03 07:45:40;;;;;;;11.80;8.40;;;24.40;45.60;;;;;;4993317;28;20483;-67
2023/07/03 07:48:06;;;;;;;11.60;7.30;;;24.40;45.60;;;;;;4994531;28;20193;-68
2023/07/03 07:50:36;;;;;;;11.70;8.30;;;24.40;45.60;;;;;;4994605;28;20956;-68
2023/07/03 07:53:02;;;;;;;10.37;8.20;;;24.40;45.60;;;;;;4994634;28;20177;-68
2023/07/03 07:55:27;;;;;;;9.53;7.77;;;24.40;45.60;;;;;;4994693;28;20408;-67
2023/07/03 07:57:53;;;;;;;13.27;7.37;;;24.40;45.60;;;;;;4994410;28;20197;-66
2023/07/03 08:00:19;;;;;;;16.83;6.87;;;24.40;45.50;;;;;;4994503;28;20212;-68
2023/07/03 08:02:45;;;;;;;11.37;7.80;;;24.50;45.60;;;;;;4994289;28;20185;-69
2023/07/03 08:05:10;;;;;;;10.87;7.10;;;24.40;45.50;;;;;;4994370;28;20462;-68
2023/07/03 08:07:36;;;;;;;13.07;7.97;;;24.40;45.50;;;;;;4994203;28;20283;-68
2023/07/03 08:10:02;;;;;;;13.07;7.67;;;24.40;45.50;;;;;;4994330;28;20537;-69
2023/07/03 08:12:27;;;;;;;11.27;7.30;;;24.40;45.50;;;;;;4994430;28;20173;-68
2023/07/03 08:14:53;;;;;;;9.10;6.00;;;24.40;45.50;;;;;;4992541;28;20212;-66
2023/07/03 08:17:19;;;;;;;12.13;7.00;;;24.40;45.60;;;;;;4994040;28;20192;-68
2023/07/03 08:19:44;;;;;;;8.43;6.93;;;24.40;45.60;;;;;;4994272;28;20188;-67
2023/07/03 08:22:10;;;;;;;15.27;8.57;;;24.40;45.70;;;;;;4994047;28;20256;-67
2023/07/03 08:24:35;;;;;;;10.10;7.67;;;24.40;45.80;;;;;;4994029;28;20574;-68
2023/07/03 08:27:01;;;;;;;9.60;8.00;;;24.40;45.90;;;;;;4993833;28;20205;-67
2023/07/03 08:29:27;;;;;;;10.17;6.77;;;24.40;45.90;;;;;;4993322;28;20216;-68
2023/07/03 08:31:52;;;;;;;12.20;7.90;;;24.50;46.00;;;;;;4993271;28;20595;-67
2023/07/03 08:34:18;;;;;;;12.70;7.07;;;24.50;46.10;;;;;;4992516;28;20207;-68
2023/07/03 08:36:43;;;;;;;9.40;7.67;;;24.50;46.10;;;;;;4993820;28;20201;-67
2023/07/03 08:39:09;;;;;;;10.03;7.40;;;24.50;46.20;;;;;;4993835;28;20251;-67
2023/07/03 08:41:44;;;;;;;13.80;7.30;;;24.50;46.30;;;;;;4993662;28;20176;-67
2023/07/03 08:44:10;;;;;;;9.73;6.33;;;24.50;46.30;;;;;;4993583;28;20292;-68
2023/07/03 08:46:37;;;;;;;11.37;7.70;;;24.50;46.30;;;;;;4992134;28;20464;-68
2023/07/03 08:49:04;;;;;;;9.70;6.50;;;24.50;46.30;;;;;;4992451;28;20408;-66
2023/07/03 08:51:32;;;;;;;12.00;7.33;;;24.50;46.40;;;;;;4993585;28;20487;-67
2023/07/03 08:54:17;;;;;;;9.13;7.10;;;24.50;46.40;;;;;;4993413;28;20412;-66
2023/07/03 08:56:43;;;;;;;8.67;6.60;;;24.50;46.40;;;;;;4993584;28;20427;-66
2023/07/03 08:59:08;;;;;;;9.80;7.03;;;24.50;46.40;;;;;;4993529;28;20801;-68
2023/07/03 09:01:37;;;;;;;9.87;7.00;;;24.50;46.40;;;;;;4992008;28;20193;-66
2023/07/03 09:04:33;;;;;;;9.27;6.07;;;24.50;46.40;;;;;;4993243;28;20177;-67
2023/07/03 09:07:20;;;;;;;8.90;6.23;;;24.50;46.30;;;;;;4993156;28;20471;-68
2023/07/03 09:10:00;;;;;;;11.27;7.27;;;24.50;46.40;;;;;;4992467;28;20435;-68
2023/07/03 09:12:28;;;;;;;9.87;6.63;;;24.50;46.40;;;;;;4993193;28;20399;-68
2023/07/03 09:15:00;;;;;;;11.20;6.50;;;24.50;46.40;;;;;;4992619;28;20924;-68
2023/07/03 09:17:26;;;;;;;9.47;6.90;;;24.50;46.40;;;;;;4993114;28;20412;-67
2023/07/03 09:19:55;;;;;;;10.97;6.57;;;24.50;46.40;;;;;;4993032;28;20404;-68
2023/07/03 09:22:29;;;;;;;11.20;7.10;;;24.50;46.40;;;;;;4992958;28;20573;-68
2023/07/03 09:25:00;;;;;;;8.50;6.43;;;24.50;46.40;;;;;;4991662;28;20795;-68
2023/07/03 09:27:27;;;;;;;10.90;7.33;;;24.50;46.40;;;;;;4991508;28;20432;-68
2023/07/03 09:30:01;;;;;;;8.57;6.80;;;24.50;46.40;;;;;;4992776;28;20442;-68
2023/07/03 09:32:29;;;;;;;10.57;7.47;;;24.60;46.50;;;;;;4992869;28;20761;-68
2023/07/03 09:35:15;;;;;;;10.50;6.47;;;24.50;46.50;;;;;;4991475;28;20448;-65
2023/07/03 09:37:44;;;;;;;7.70;5.63;;;24.50;46.50;;;;;;4992939;28;20519;-66
2023/07/03 09:40:25;;;;;;;6.93;5.60;;;24.50;46.50;;;;;;4991757;28;20759;-66
2023/07/03 09:42:51;;;;;;;8.13;6.13;;;24.50;46.40;;;;;;4992793;28;20863;-67
2023/07/03 09:45:21;;;;;;;10.07;7.27;;;24.50;46.50;;;;;;4992598;28;20833;-67
2023/07/03 09:47:58;;;;;;;9.90;6.10;;;24.50;46.50;;;;;;4992578;28;20440;-67
2023/07/03 09:50:36;;;;;;;7.77;4.77;;;24.50;46.60;;;;;;4992869;28;20428;-68
2023/07/03 09:53:03;;;;;;;6.97;5.20;;;24.50;46.60;;;;;;4992912;28;20404;-67
2023/07/03 09:55:30;;;;;;;7.97;5.80;;;24.50;46.60;;;;;;4991209;28;20420;-68
2023/07/03 09:57:56;;;;;;;7.93;6.30;;;24.60;46.70;;;;;;4992488;28;20438;-69
2023/07/03 10:00:24;;;;;;;6.80;5.83;;;24.60;46.70;;;;;;4992509;28;20964;-68
2023/07/03 10:02:57;;;;;;;9.00;6.87;;;24.60;46.80;;;;;;4992456;28;20174;-67
2023/07/03 10:05:32;;;;;;;6.93;5.67;;;24.60;46.70;;;;;;4992637;28;20542;-67
2023/07/03 10:08:05;;;;;;;5.87;5.30;;;24.60;46.70;;;;;;4992674;28;20921;-67
2023/07/03 10:10:34;;;;;;;6.43;5.57;;;24.60;46.70;;;;;;4992569;28;20794;-69
2023/07/03 10:12:59;;;;;;;11.07;7.97;;;24.60;46.70;;;;;;4992477;28;20450;-67
2023/07/03 10:15:28;;;;;;;6.63;4.93;;;24.60;46.80;;;;;;4992439;28;20499;-69
2023/07/03 10:18:02;;;;;;;9.83;5.30;;;24.60;46.70;;;;;;4992292;28;20201;-69
2023/07/03 10:20:39;;;;;;;5.50;4.83;;;24.60;46.80;;;;;;4992375;28;20455;-68
2023/07/03 10:23:08;;;;;;;6.03;5.43;;;24.60;46.80;;;;;;4992395;28;20396;-67
2023/07/03 10:25:41;;;;;;;6.87;5.23;;;24.60;46.80;;;;;;4992822;28;20790;-66
2023/07/03 10:28:21;;;;;;;7.03;5.47;;;24.60;46.80;;;;;;4996145;28;20431;-68
2023/07/03 10:30:52;;;;;;;8.63;5.27;;;24.60;46.80;;;;;;4996452;28;20400;-67
2023/07/03 10:33:24;;;;;;;6.47;5.10;;;24.60;46.80;;;;;;4996082;28;20427;-69
2023/07/03 10:35:50;;;;;;;6.37;4.70;;;24.60;46.90;;;;;;4996322;28;20396;-67
2023/07/03 10:38:25;;;;;;;7.03;4.70;;;24.60;46.80;;;;;;4996148;28;20511;-66
2023/07/03 10:41:03;;;;;;;5.33;4.83;;;24.60;46.90;;;;;;4995921;28;20415;-67
2023/07/03 10:43:34;;;;;;;6.93;5.43;;;24.60;46.90;;;;;;4996145;28;20877;-66
2023/07/03 10:46:02;;;;;;;5.40;4.90;;;24.60;46.90;;;;;;4995782;28;20529;-68
2023/07/03 10:48:33;;;;;;;4.90;4.40;;;24.60;46.90;;;;;;4995753;28;20491;-69
2023/07/03 10:51:06;;;;;;;6.33;4.53;;;24.60;46.90;;;;;;4995760;28;20395;-67
2023/07/03 10:53:32;;;;;;;5.70;5.10;;;24.60;46.90;;;;;;4995708;28;20447;-66
2023/07/03 10:56:06;;;;;;;5.47;4.47;;;24.60;46.90;;;;;;4995620;28;20803;-67
2023/07/03 10:58:55;;;;;;;5.33;4.43;;;24.60;46.90;;;;;;4995567;28;20169;-68
2023/07/03 11:01:40;;;;;;;6.13;4.40;;;24.60;47.00;;;;;;4995587;28;20443;-67
2023/07/03 11:04:36;;;;;;;5.23;4.70;;;24.60;47.00;;;;;;4995478;28;20923;-66
2023/07/03 11:07:20;;;;;;;6.30;5.07;;;24.60;47.00;;;;;;4990397;28;20515;-65
2023/07/03 11:10:13;;;;;;;5.80;4.20;;;24.60;47.00;;;;;;4994243;28;20952;-68
2023/07/03 11:13:07;;;;;;;7.17;4.43;;;24.60;47.10;;;;;;4995435;28;20835;-67
2023/07/03 11:15:45;;;;;;;6.63;4.83;;;24.60;47.00;;;;;;4973618;28;20424;-66
2023/07/03 11:18:39;;;;;;;6.00;3.90;;;24.60;47.10;;;;;;4995000;28;20436;-67
2023/07/03 11:21:17;;;;;;;5.00;3.93;;;24.60;47.10;;;;;;4994561;28;20389;-67
2023/07/03 11:23:47;;;;;;;6.50;4.20;;;24.60;47.10;;;;;;4994797;28;20451;-68
2023/07/03 11:26:28;;;;;;;4.73;3.97;;;24.60;47.10;;;;;;4994915;28;20459;-67
2023/07/03 11:28:55;;;;;;;7.20;4.80;;;24.60;47.10;;;;;;4995106;28;20766;-67
2023/07/03 11:31:24;;;;;;;4.90;4.17;;;24.60;47.20;;;;;;4995005;28;20408;-68
2023/07/03 11:33:51;;;;;;;5.60;3.73;;;24.60;47.20;;;;;;4994989;28;20774;-68
2023/07/03 11:36:44;;;;;;;5.17;4.00;;;24.60;47.20;;;;;;4993074;28;20450;-68
2023/07/03 11:39:24;;;;;;;5.10;3.97;;;24.70;47.20;;;;;;4972722;28;20424;-68
2023/07/03 11:42:11;;;;;;;5.10;4.33;;;24.60;47.10;;;;;;4994837;28;20874;-68
2023/07/03 11:44:46;;;;;;;4.10;3.23;;;24.70;47.20;;;;;;4994699;28;20917;-69
2023/07/03 11:47:18;;;;;;;5.10;3.47;;;24.70;47.20;;;;;;4994668;28;20428;-68
2023/07/03 11:49:50;;;;;;;5.17;3.20;;;24.70;47.20;;;;;;4994629;28;20480;-67
2023/07/03 11:52:32;;;;;;;3.77;3.23;;;24.70;47.20;;;;;;4994647;28;20389;-68
2023/07/03 11:55:20;;;;;;;6.17;3.80;;;24.70;47.10;;;;;;4994566;28;20388;-69
2023/07/03 11:57:54;;;;;;;5.73;3.50;;;24.70;47.10;;;;;;4994795;28;20802;-68
2023/07/03 12:00:27;;;;;;;2.60;2.40;;;24.70;47.10;;;;;;4994486;28;20412;-68
2023/07/03 12:03:04;;;;;;;3.90;3.00;;;24.70;47.10;;;;;;4994555;28;20399;-69
2023/07/03 12:05:44;;;;;;;4.17;3.13;;;24.70;47.10;;;;;;4994266;28;20483;-68
2023/07/03 12:08:37;;;;;;;2.60;2.40;;;24.70;47.10;;;;;;4994267;28;20438;-68
2023/07/03 12:11:03;;;;;;;3.07;2.77;;;24.70;47.10;;;;;;4994312;28;20415;-68
2023/07/03 12:13:35;;;;;;;4.50;3.07;;;24.70;47.10;;;;;;4994503;28;20408;-68
2023/07/03 12:16:05;;;;;;;3.83;3.00;;;24.70;47.10;;;;;;4994482;28;20404;-69
2023/07/03 12:18:32;;;;;;;3.63;2.83;;;24.70;47.10;;;;;;4992822;28;20460;-69
2023/07/03 12:21:00;;;;;;;4.00;3.07;;;24.70;47.10;;;;;;4994084;28;20416;-70
2023/07/03 12:23:44;;;;;;;2.63;2.37;;;24.70;47.10;;;;;;4994046;28;20505;-69
2023/07/03 12:26:17;;;;;;;2.90;2.40;;;24.70;47.10;;;;;;4993842;28;20538;-68
2023/07/03 12:28:44;;;;;;;3.63;2.50;;;24.70;47.20;;;;;;4994175;28;20480;-69
2023/07/03 12:31:14;;;;;;;4.10;2.70;;;24.70;47.10;;;;;;4993810;28;20423;-68
2023/07/03 12:33:52;;;;;;;3.33;2.30;;;24.70;47.10;;;;;;4993759;28;20444;-67
2023/07/03 12:36:35;;;;;;;3.20;2.60;;;24.70;47.60;;;;;;4993661;28;20499;-67
2023/07/03 12:39:10;;;;;;;2.87;2.57;;;24.70;47.10;;;;;;4993660;28;20463;-69
2023/07/03 12:41:36;;;;;;;3.50;2.30;;;24.70;47.10;;;;;;4992312;28;20431;-67
2023/07/03 12:44:02;;;;;;;4.27;2.50;;;24.70;47.10;;;;;;4993546;28;20447;-67